sensor_id;sensor_type;location;lat;lon;timestamp;temperature;humidity
29571;DHT22;16814;52.118;11.436;2022-07-29T00:01:24;15.90;93.30
29571;DHT22;16814;52.118;11.436;2022-07-29T00:03:52;15.80;93.00
29571;DHT22;16814;52.118;11.436;2022-07-29T00:06:18;15.70;93.70
29571;DHT22;16814;52.118;11.436;2022-07-29T00:08:45;15.70;93.20
29571;DHT22;16814;52.118;11.436;2022-07-29T00:11:13;15.80;93.40
29571;DHT22;16814;52.118;11.436;2022-07-29T00:13:40;15.80;93.00
29571;DHT22;16814;52.118;11.436;2022-07-29T00:16:06;15.70;93.50
29571;DHT22;16814;52.118;11.436;2022-07-29T00:18:36;15.70;93.90
29571;DHT22;16814;52.118;11.436;2022-07-29T00:21:03;15.60;94.00
29571;DHT22;16814;52.118;11.436;2022-07-29T00:23:33;15.50;94.10
29571;DHT22;16814;52.118;11.436;2022-07-29T00:25:59;15.50;94.00
29571;DHT22;16814;52.118;11.436;2022-07-29T00:28:28;15.40;94.40
29571;DHT22;16814;52.118;11.436;2022-07-29T00:30:55;15.50;94.20
29571;DHT22;16814;52.118;11.436;2022-07-29T00:33:21;15.50;94.40
29571;DHT22;16814;52.118;11.436;2022-07-29T00:35:49;15.40;94.20
29571;DHT22;16814;52.118;11.436;2022-07-29T00:38:17;15.40;94.50
29571;DHT22;16814;52.118;11.436;2022-07-29T00:40:46;15.40;94.60
29571;DHT22;16814;52.118;11.436;2022-07-29T00:43:13;15.30;94.50
29571;DHT22;16814;52.118;11.436;2022-07-29T00:45:40;15.30;94.30
29571;DHT22;16814;52.118;11.436;2022-07-29T00:48:06;15.30;94.60
29571;DHT22;16814;52.118;11.436;2022-07-29T00:50:35;15.30;94.60
29571;DHT22;16814;52.118;11.436;2022-07-29T00:53:02;15.30;94.90
29571;DHT22;16814;52.118;11.436;2022-07-29T00:55:31;15.30;94.50
29571;DHT22;16814;52.118;11.436;2022-07-29T00:57:59;15.30;94.50
29571;DHT22;16814;52.118;11.436;2022-07-29T01:00:26;15.30;94.60
29571;DHT22;16814;52.118;11.436;2022-07-29T01:02:54;15.30;94.70
29571;DHT22;16814;52.118;11.436;2022-07-29T01:05:23;15.20;95.00
29571;DHT22;16814;52.118;11.436;2022-07-29T01:07:53;15.20;94.70
29571;DHT22;16814;52.118;11.436;2022-07-29T01:10:20;15.20;95.30
29571;DHT22;16814;52.118;11.436;2022-07-29T01:12:49;15.20;95.40
29571;DHT22;16814;52.118;11.436;2022-07-29T01:15:18;15.00;95.80
29571;DHT22;16814;52.118;11.436;2022-07-29T01:18:07;15.00;95.50
29571;DHT22;16814;52.118;11.436;2022-07-29T01:24:11;15.00;96.30
29571;DHT22;16814;52.118;11.436;2022-07-29T01:30:05;14.70;97.10
29571;DHT22;16814;52.118;11.436;2022-07-29T01:32:33;14.50;97.60
29571;DHT22;16814;52.118;11.436;2022-07-29T01:38:13;14.30;98.80
29571;DHT22;16814;52.118;11.436;2022-07-29T01:41:14;14.30;98.50
29571;DHT22;16814;52.118;11.436;2022-07-29T01:43:57;14.20;99.50
29571;DHT22;16814;52.118;11.436;2022-07-29T01:46:38;14.20;99.50
29571;DHT22;16814;52.118;11.436;2022-07-29T01:49:16;14.10;99.80
29571;DHT22;16814;52.118;11.436;2022-07-29T01:51:52;14.10;99.90
29571;DHT22;16814;52.118;11.436;2022-07-29T01:57:14;14.20;99.90
29571;DHT22;16814;52.118;11.436;2022-07-29T01:59:41;14.30;99.90
29571;DHT22;16814;52.118;11.436;2022-07-29T02:02:11;14.20;99.90
29571;DHT22;16814;52.118;11.436;2022-07-29T02:04:41;14.20;99.90
29571;DHT22;16814;52.118;11.436;2022-07-29T02:07:10;14.10;99.90
29571;DHT22;16814;52.118;11.436;2022-07-29T02:09:41;14.10;99.90
29571;DHT22;16814;52.118;11.436;2022-07-29T02:12:08;14.10;99.90
29571;DHT22;16814;52.118;11.436;2022-07-29T02:14:40;14.00;99.90
29571;DHT22;16814;52.118;11.436;2022-07-29T02:17:12;14.00;99.90
29571;DHT22;16814;52.118;11.436;2022-07-29T02:19:41;14.00;99.90
29571;DHT22;16814;52.118;11.436;2022-07-29T02:22:10;14.10;99.90
29571;DHT22;16814;52.118;11.436;2022-07-29T02:24:38;14.10;99.90
29571;DHT22;16814;52.118;11.436;2022-07-29T02:27:09;14.10;99.90
29571;DHT22;16814;52.118;11.436;2022-07-29T02:29:37;14.10;99.90
29571;DHT22;16814;52.118;11.436;2022-07-29T02:32:06;14.10;99.90
29571;DHT22;16814;52.118;11.436;2022-07-29T02:34:33;14.10;99.90
29571;DHT22;16814;52.118;11.436;2022-07-29T02:37:01;14.00;99.90
29571;DHT22;16814;52.118;11.436;2022-07-29T02:39:29;14.00;99.90
29571;DHT22;16814;52.118;11.436;2022-07-29T02:42:03;14.00;99.90
29571;DHT22;16814;52.118;11.436;2022-07-29T02:44:30;14.00;99.90
29571;DHT22;16814;52.118;11.436;2022-07-29T02:47:50;14.00;99.90
29571;DHT22;16814;52.118;11.436;2022-07-29T02:50:31;14.00;99.90
29571;DHT22;16814;52.118;11.436;2022-07-29T02:53:07;14.00;99.90
29571;DHT22;16814;52.118;11.436;2022-07-29T02:55:56;14.00;99.90
29571;DHT22;16814;52.118;11.436;2022-07-29T02:58:38;14.10;99.90
29571;DHT22;16814;52.118;11.436;2022-07-29T03:01:14;14.10;99.90
29571;DHT22;16814;52.118;11.436;2022-07-29T03:03:43;14.20;99.90
29571;DHT22;16814;52.118;11.436;2022-07-29T03:06:12;14.10;99.90
29571;DHT22;16814;52.118;11.436;2022-07-29T03:08:41;14.20;99.90
29571;DHT22;16814;52.118;11.436;2022-07-29T03:11:10;14.20;99.90
29571;DHT22;16814;52.118;11.436;2022-07-29T03:13:37;14.30;99.90
29571;DHT22;16814;52.118;11.436;2022-07-29T03:16:06;14.30;99.90
29571;DHT22;16814;52.118;11.436;2022-07-29T03:18:37;14.40;99.90
29571;DHT22;16814;52.118;11.436;2022-07-29T03:21:04;14.30;99.90
29571;DHT22;16814;52.118;11.436;2022-07-29T03:23:31;14.20;99.90
29571;DHT22;16814;52.118;11.436;2022-07-29T03:25:57;14.20;99.90
29571;DHT22;16814;52.118;11.436;2022-07-29T03:28:24;14.20;99.90
29571;DHT22;16814;52.118;11.436;2022-07-29T03:30:50;14.20;99.90
29571;DHT22;16814;52.118;11.436;2022-07-29T03:33:16;14.10;99.90
29571;DHT22;16814;52.118;11.436;2022-07-29T03:35:44;14.10;99.90
29571;DHT22;16814;52.118;11.436;2022-07-29T03:38:11;14.10;99.90
29571;DHT22;16814;52.118;11.436;2022-07-29T03:40:48;14.10;99.90
29571;DHT22;16814;52.118;11.436;2022-07-29T03:43:17;14.10;99.90
29571;DHT22;16814;52.118;11.436;2022-07-29T03:45:47;14.10;99.90
29571;DHT22;16814;52.118;11.436;2022-07-29T03:48:17;14.10;99.90
29571;DHT22;16814;52.118;11.436;2022-07-29T03:50:46;14.10;99.90
29571;DHT22;16814;52.118;11.436;2022-07-29T03:53:13;14.10;99.90
29571;DHT22;16814;52.118;11.436;2022-07-29T03:55:47;14.10;99.90
29571;DHT22;16814;52.118;11.436;2022-07-29T03:58:16;14.20;99.90
29571;DHT22;16814;52.118;11.436;2022-07-29T04:00:46;14.20;99.90
29571;DHT22;16814;52.118;11.436;2022-07-29T04:03:13;14.40;99.90
29571;DHT22;16814;52.118;11.436;2022-07-29T04:05:40;14.50;99.90
29571;DHT22;16814;52.118;11.436;2022-07-29T04:08:06;14.60;99.90
29571;DHT22;16814;52.118;11.436;2022-07-29T04:10:33;14.40;99.90
29571;DHT22;16814;52.118;11.436;2022-07-29T04:13:02;14.50;99.90
29571;DHT22;16814;52.118;11.436;2022-07-29T04:15:28;14.30;99.90
29571;DHT22;16814;52.118;11.436;2022-07-29T04:17:55;14.20;99.90
29571;DHT22;16814;52.118;11.436;2022-07-29T04:20:21;14.20;99.90
29571;DHT22;16814;52.118;11.436;2022-07-29T04:22:49;14.20;99.90
29571;DHT22;16814;52.118;11.436;2022-07-29T04:25:14;14.20;99.90
29571;DHT22;16814;52.118;11.436;2022-07-29T04:27:40;14.30;99.90
29571;DHT22;16814;52.118;11.436;2022-07-29T04:30:29;14.20;99.90
29571;DHT22;16814;52.118;11.436;2022-07-29T04:32:56;14.20;99.90
29571;DHT22;16814;52.118;11.436;2022-07-29T04:35:24;14.20;99.90
29571;DHT22;16814;52.118;11.436;2022-07-29T04:37:49;14.20;99.90
29571;DHT22;16814;52.118;11.436;2022-07-29T04:40:16;14.20;99.90
29571;DHT22;16814;52.118;11.436;2022-07-29T04:42:43;14.20;99.90
29571;DHT22;16814;52.118;11.436;2022-07-29T04:45:09;14.20;99.90
29571;DHT22;16814;52.118;11.436;2022-07-29T04:47:35;14.10;99.90
29571;DHT22;16814;52.118;11.436;2022-07-29T04:50:03;14.10;99.90
29571;DHT22;16814;52.118;11.436;2022-07-29T04:52:29;14.10;99.90
29571;DHT22;16814;52.118;11.436;2022-07-29T04:54:56;14.10;99.90
29571;DHT22;16814;52.118;11.436;2022-07-29T04:57:23;14.00;99.90
29571;DHT22;16814;52.118;11.436;2022-07-29T04:59:50;14.10;99.90
29571;DHT22;16814;52.118;11.436;2022-07-29T05:02:20;14.30;99.90
29571;DHT22;16814;52.118;11.436;2022-07-29T05:04:47;14.20;99.90
29571;DHT22;16814;52.118;11.436;2022-07-29T05:07:13;14.40;99.90
29571;DHT22;16814;52.118;11.436;2022-07-29T05:09:40;14.30;99.90
29571;DHT22;16814;52.118;11.436;2022-07-29T05:12:07;14.30;99.90
29571;DHT22;16814;52.118;11.436;2022-07-29T05:14:33;14.40;99.90
29571;DHT22;16814;52.118;11.436;2022-07-29T05:16:59;14.50;99.90
29571;DHT22;16814;52.118;11.436;2022-07-29T05:19:27;14.50;99.90
29571;DHT22;16814;52.118;11.436;2022-07-29T05:21:53;14.70;99.90
29571;DHT22;16814;52.118;11.436;2022-07-29T05:24:19;14.70;99.90
29571;DHT22;16814;52.118;11.436;2022-07-29T05:26:47;14.80;99.90
29571;DHT22;16814;52.118;11.436;2022-07-29T05:29:13;15.00;99.90
29571;DHT22;16814;52.118;11.436;2022-07-29T05:31:40;15.30;99.90
29571;DHT22;16814;52.118;11.436;2022-07-29T05:34:08;15.80;99.90
29571;DHT22;16814;52.118;11.436;2022-07-29T05:36:35;16.40;99.90
29571;DHT22;16814;52.118;11.436;2022-07-29T05:39:00;17.00;99.90
29571;DHT22;16814;52.118;11.436;2022-07-29T05:41:26;18.10;99.90
29571;DHT22;16814;52.118;11.436;2022-07-29T05:43:53;19.30;99.90
29571;DHT22;16814;52.118;11.436;2022-07-29T05:46:18;19.60;99.90
29571;DHT22;16814;52.118;11.436;2022-07-29T05:48:46;19.10;99.90
29571;DHT22;16814;52.118;11.436;2022-07-29T05:51:13;18.20;99.90
29571;DHT22;16814;52.118;11.436;2022-07-29T05:53:38;17.70;99.90
29571;DHT22;16814;52.118;11.436;2022-07-29T05:56:05;17.40;99.90
29571;DHT22;16814;52.118;11.436;2022-07-29T05:58:31;17.30;99.90
29571;DHT22;16814;52.118;11.436;2022-07-29T06:00:59;17.20;99.90
29571;DHT22;16814;52.118;11.436;2022-07-29T06:03:25;17.40;99.90
29571;DHT22;16814;52.118;11.436;2022-07-29T06:05:51;18.40;99.90
29571;DHT22;16814;52.118;11.436;2022-07-29T06:08:20;19.70;99.90
29571;DHT22;16814;52.118;11.436;2022-07-29T06:10:47;20.30;98.50
29571;DHT22;16814;52.118;11.436;2022-07-29T06:13:14;19.80;99.10
29571;DHT22;16814;52.118;11.436;2022-07-29T06:15:42;19.10;99.90
29571;DHT22;16814;52.118;11.436;2022-07-29T06:18:09;18.30;99.90
29571;DHT22;16814;52.118;11.436;2022-07-29T06:20:36;17.80;99.90
29571;DHT22;16814;52.118;11.436;2022-07-29T06:23:03;17.40;99.90
29571;DHT22;16814;52.118;11.436;2022-07-29T06:25:31;17.30;99.90
29571;DHT22;16814;52.118;11.436;2022-07-29T06:28:00;17.30;99.90
29571;DHT22;16814;52.118;11.436;2022-07-29T06:30:28;17.20;99.90
29571;DHT22;16814;52.118;11.436;2022-07-29T06:32:55;16.90;99.90
29571;DHT22;16814;52.118;11.436;2022-07-29T06:35:22;16.80;99.90
29571;DHT22;16814;52.118;11.436;2022-07-29T06:37:50;16.70;99.90
29571;DHT22;16814;52.118;11.436;2022-07-29T06:40:18;16.80;99.90
29571;DHT22;16814;52.118;11.436;2022-07-29T06:43:07;17.00;99.90
29571;DHT22;16814;52.118;11.436;2022-07-29T06:45:35;17.10;99.90
29571;DHT22;16814;52.118;11.436;2022-07-29T06:48:05;17.00;99.90
29571;DHT22;16814;52.118;11.436;2022-07-29T06:50:32;16.80;99.90
29571;DHT22;16814;52.118;11.436;2022-07-29T06:52:58;16.80;99.90
29571;DHT22;16814;52.118;11.436;2022-07-29T06:55:25;16.80;99.90
29571;DHT22;16814;52.118;11.436;2022-07-29T06:57:52;16.90;99.90
29571;DHT22;16814;52.118;11.436;2022-07-29T07:00:20;17.00;99.90
29571;DHT22;16814;52.118;11.436;2022-07-29T07:02:46;17.10;99.90
29571;DHT22;16814;52.118;11.436;2022-07-29T07:05:14;17.20;99.90
29571;DHT22;16814;52.118;11.436;2022-07-29T07:07:40;17.20;99.90
29571;DHT22;16814;52.118;11.436;2022-07-29T07:10:08;17.30;99.90
29571;DHT22;16814;52.118;11.436;2022-07-29T07:12:34;18.10;99.90
29571;DHT22;16814;52.118;11.436;2022-07-29T07:15:01;19.00;99.90
29571;DHT22;16814;52.118;11.436;2022-07-29T07:17:28;19.30;99.90
29571;DHT22;16814;52.118;11.436;2022-07-29T07:19:54;19.20;99.90
29571;DHT22;16814;52.118;11.436;2022-07-29T07:22:21;19.00;99.90
29571;DHT22;16814;52.118;11.436;2022-07-29T07:24:47;18.70;99.90
29571;DHT22;16814;52.118;11.436;2022-07-29T07:27:13;18.40;99.90
29571;DHT22;16814;52.118;11.436;2022-07-29T07:29:38;18.20;99.90
29571;DHT22;16814;52.118;11.436;2022-07-29T07:32:06;18.10;99.90
29571;DHT22;16814;52.118;11.436;2022-07-29T07:34:32;18.40;99.90
29571;DHT22;16814;52.118;11.436;2022-07-29T07:37:00;18.80;99.90
29571;DHT22;16814;52.118;11.436;2022-07-29T07:39:27;19.10;99.90
29571;DHT22;16814;52.118;11.436;2022-07-29T07:41:59;19.80;98.60
29571;DHT22;16814;52.118;11.436;2022-07-29T07:44:24;20.30;97.20
29571;DHT22;16814;52.118;11.436;2022-07-29T07:46:51;20.80;96.30
29571;DHT22;16814;52.118;11.436;2022-07-29T07:49:17;20.90;95.80
29571;DHT22;16814;52.118;11.436;2022-07-29T07:51:43;20.70;95.30
29571;DHT22;16814;52.118;11.436;2022-07-29T07:54:09;20.50;95.20
29571;DHT22;16814;52.118;11.436;2022-07-29T07:56:38;20.40;95.60
29571;DHT22;16814;52.118;11.436;2022-07-29T07:59:05;20.60;95.10
29571;DHT22;16814;52.118;11.436;2022-07-29T08:01:31;20.70;94.90
29571;DHT22;16814;52.118;11.436;2022-07-29T08:03:56;21.40;93.70
29571;DHT22;16814;52.118;11.436;2022-07-29T08:06:23;21.80;92.60
29571;DHT22;16814;52.118;11.436;2022-07-29T08:08:52;22.10;92.70
29571;DHT22;16814;52.118;11.436;2022-07-29T08:11:18;22.50;92.00
29571;DHT22;16814;52.118;11.436;2022-07-29T08:13:47;22.90;91.20
29571;DHT22;16814;52.118;11.436;2022-07-29T08:16:14;23.00;90.10
29571;DHT22;16814;52.118;11.436;2022-07-29T08:18:42;23.20;86.60
29571;DHT22;16814;52.118;11.436;2022-07-29T08:21:10;22.80;87.30
29571;DHT22;16814;52.118;11.436;2022-07-29T08:23:37;22.80;88.10
29571;DHT22;16814;52.118;11.436;2022-07-29T08:26:13;22.40;89.40
29571;DHT22;16814;52.118;11.436;2022-07-29T08:28:40;22.60;90.30
29571;DHT22;16814;52.118;11.436;2022-07-29T08:31:08;22.70;89.40
29571;DHT22;16814;52.118;11.436;2022-07-29T08:33:34;22.40;89.80
29571;DHT22;16814;52.118;11.436;2022-07-29T08:36:10;22.50;90.60
29571;DHT22;16814;52.118;11.436;2022-07-29T08:38:45;22.80;90.20
29571;DHT22;16814;52.118;11.436;2022-07-29T08:41:12;23.40;88.00
29571;DHT22;16814;52.118;11.436;2022-07-29T08:43:39;23.70;86.10
29571;DHT22;16814;52.118;11.436;2022-07-29T08:46:07;24.10;83.90
29571;DHT22;16814;52.118;11.436;2022-07-29T08:48:34;23.90;84.90
29571;DHT22;16814;52.118;11.436;2022-07-29T08:51:02;24.20;83.80
29571;DHT22;16814;52.118;11.436;2022-07-29T08:53:30;24.40;82.90
29571;DHT22;16814;52.118;11.436;2022-07-29T08:55:58;24.50;81.50
29571;DHT22;16814;52.118;11.436;2022-07-29T08:58:33;24.80;80.30
29571;DHT22;16814;52.118;11.436;2022-07-29T09:01:01;24.80;80.30
29571;DHT22;16814;52.118;11.436;2022-07-29T09:03:32;24.70;80.00
29571;DHT22;16814;52.118;11.436;2022-07-29T09:05:59;24.90;81.20
29571;DHT22;16814;52.118;11.436;2022-07-29T09:08:27;25.10;78.90
29571;DHT22;16814;52.118;11.436;2022-07-29T09:10:54;24.80;78.40
29571;DHT22;16814;52.118;11.436;2022-07-29T09:13:21;24.90;77.20
29571;DHT22;16814;52.118;11.436;2022-07-29T09:15:49;25.10;76.50
29571;DHT22;16814;52.118;11.436;2022-07-29T09:18:35;25.20;76.70
29571;DHT22;16814;52.118;11.436;2022-07-29T09:21:03;25.40;75.60
29571;DHT22;16814;52.118;11.436;2022-07-29T09:24:10;25.50;76.50
29571;DHT22;16814;52.118;11.436;2022-07-29T09:26:43;25.70;75.10
29571;DHT22;16814;52.118;11.436;2022-07-29T09:29:20;25.50;75.90
29571;DHT22;16814;52.118;11.436;2022-07-29T09:31:48;25.70;76.30
29571;DHT22;16814;52.118;11.436;2022-07-29T09:34:16;25.80;74.30
29571;DHT22;16814;52.118;11.436;2022-07-29T09:36:49;25.60;74.30
29571;DHT22;16814;52.118;11.436;2022-07-29T09:39:26;25.60;74.90
29571;DHT22;16814;52.118;11.436;2022-07-29T09:41:54;25.70;74.30
29571;DHT22;16814;52.118;11.436;2022-07-29T09:44:21;25.60;74.70
29571;DHT22;16814;52.118;11.436;2022-07-29T09:47:01;25.90;73.50
29571;DHT22;16814;52.118;11.436;2022-07-29T09:49:35;25.90;73.60
29571;DHT22;16814;52.118;11.436;2022-07-29T09:52:06;25.90;73.40
29571;DHT22;16814;52.118;11.436;2022-07-29T09:54:33;25.90;72.90
29571;DHT22;16814;52.118;11.436;2022-07-29T09:57:26;26.30;72.40
29571;DHT22;16814;52.118;11.436;2022-07-29T10:00:18;26.70;72.20
29571;DHT22;16814;52.118;11.436;2022-07-29T10:02:46;27.10;71.60
29571;DHT22;16814;52.118;11.436;2022-07-29T10:05:23;26.80;69.00
29571;DHT22;16814;52.118;11.436;2022-07-29T10:07:53;26.90;70.70
29571;DHT22;16814;52.118;11.436;2022-07-29T10:10:25;26.70;72.00
29571;DHT22;16814;52.118;11.436;2022-07-29T10:12:56;27.20;69.40
29571;DHT22;16814;52.118;11.436;2022-07-29T10:15:28;27.60;68.00
29571;DHT22;16814;52.118;11.436;2022-07-29T10:17:55;27.70;68.80
29571;DHT22;16814;52.118;11.436;2022-07-29T10:20:22;27.80;66.60
29571;DHT22;16814;52.118;11.436;2022-07-29T10:22:50;27.90;67.30
29571;DHT22;16814;52.118;11.436;2022-07-29T10:25:18;27.80;66.70
29571;DHT22;16814;52.118;11.436;2022-07-29T10:27:46;27.70;65.10
29571;DHT22;16814;52.118;11.436;2022-07-29T10:30:17;27.70;66.30
29571;DHT22;16814;52.118;11.436;2022-07-29T10:36:04;28.00;62.00
29571;DHT22;16814;52.118;11.436;2022-07-29T10:38:53;28.00;64.20
29571;DHT22;16814;52.118;11.436;2022-07-29T10:41:33;27.40;62.80
29571;DHT22;16814;52.118;11.436;2022-07-29T10:44:14;27.50;63.10
29571;DHT22;16814;52.118;11.436;2022-07-29T10:46:44;27.40;63.00
29571;DHT22;16814;52.118;11.436;2022-07-29T10:49:22;27.70;62.60
29571;DHT22;16814;52.118;11.436;2022-07-29T10:52:07;27.60;61.50
29571;DHT22;16814;52.118;11.436;2022-07-29T10:54:45;28.30;61.90
29571;DHT22;16814;52.118;11.436;2022-07-29T10:57:31;28.60;59.40
29571;DHT22;16814;52.118;11.436;2022-07-29T11:00:26;29.00;59.00
29571;DHT22;16814;52.118;11.436;2022-07-29T11:02:54;29.10;58.40
29571;DHT22;16814;52.118;11.436;2022-07-29T11:05:23;29.50;57.60
29571;DHT22;16814;52.118;11.436;2022-07-29T11:08:19;29.50;56.90
29571;DHT22;16814;52.118;11.436;2022-07-29T11:10:48;29.30;56.50
29571;DHT22;16814;52.118;11.436;2022-07-29T11:13:50;29.00;57.10
29571;DHT22;16814;52.118;11.436;2022-07-29T11:16:19;29.20;55.50
29571;DHT22;16814;52.118;11.436;2022-07-29T11:21:45;29.30;55.90
29571;DHT22;16814;52.118;11.436;2022-07-29T11:24:22;29.40;56.50
29571;DHT22;16814;52.118;11.436;2022-07-29T11:27:21;29.50;56.70
29571;DHT22;16814;52.118;11.436;2022-07-29T11:32:17;29.70;56.20
29571;DHT22;16814;52.118;11.436;2022-07-29T11:35:11;29.60;55.40
29571;DHT22;16814;52.118;11.436;2022-07-29T11:37:37;29.40;55.70
29571;DHT22;16814;52.118;11.436;2022-07-29T11:40:12;28.90;57.00
29571;DHT22;16814;52.118;11.436;2022-07-29T11:42:39;28.80;56.40
29571;DHT22;16814;52.118;11.436;2022-07-29T11:45:31;29.00;55.70
29571;DHT22;16814;52.118;11.436;2022-07-29T11:48:17;28.30;55.50
29571;DHT22;16814;52.118;11.436;2022-07-29T11:50:43;28.30;55.90
29571;DHT22;16814;52.118;11.436;2022-07-29T11:53:11;28.40;54.90
29571;DHT22;16814;52.118;11.436;2022-07-29T11:55:40;28.50;56.60
29571;DHT22;16814;52.118;11.436;2022-07-29T11:58:08;28.50;56.20
29571;DHT22;16814;52.118;11.436;2022-07-29T12:00:40;28.70;55.30
29571;DHT22;16814;52.118;11.436;2022-07-29T12:03:10;28.70;55.10
29571;DHT22;16814;52.118;11.436;2022-07-29T12:05:44;28.70;54.80
29571;DHT22;16814;52.118;11.436;2022-07-29T12:08:15;28.90;55.00
29571;DHT22;16814;52.118;11.436;2022-07-29T12:10:55;28.80;53.40
29571;DHT22;16814;52.118;11.436;2022-07-29T12:13:21;29.00;53.60
29571;DHT22;16814;52.118;11.436;2022-07-29T12:15:53;29.10;53.90
29571;DHT22;16814;52.118;11.436;2022-07-29T12:18:22;29.30;53.90
29571;DHT22;16814;52.118;11.436;2022-07-29T12:20:56;29.40;53.20
29571;DHT22;16814;52.118;11.436;2022-07-29T12:23:21;29.20;53.10
29571;DHT22;16814;52.118;11.436;2022-07-29T12:25:48;29.00;52.30
29571;DHT22;16814;52.118;11.436;2022-07-29T12:28:16;28.50;51.80
29571;DHT22;16814;52.118;11.436;2022-07-29T12:30:46;28.00;53.60
29571;DHT22;16814;52.118;11.436;2022-07-29T12:33:29;27.80;54.90
29571;DHT22;16814;52.118;11.436;2022-07-29T12:36:02;27.80;54.90
29571;DHT22;16814;52.118;11.436;2022-07-29T12:38:29;28.10;54.20
29571;DHT22;16814;52.118;11.436;2022-07-29T12:40:57;28.00;54.10
29571;DHT22;16814;52.118;11.436;2022-07-29T12:43:25;28.00;54.10
29571;DHT22;16814;52.118;11.436;2022-07-29T12:45:54;28.10;54.70
29571;DHT22;16814;52.118;11.436;2022-07-29T12:48:40;27.90;54.80
29571;DHT22;16814;52.118;11.436;2022-07-29T12:51:07;28.20;55.10
29571;DHT22;16814;52.118;11.436;2022-07-29T12:53:40;28.40;53.70
29571;DHT22;16814;52.118;11.436;2022-07-29T12:56:16;28.60;52.90
29571;DHT22;16814;52.118;11.436;2022-07-29T12:58:42;28.60;52.70
29571;DHT22;16814;52.118;11.436;2022-07-29T13:01:12;28.70;52.70
29571;DHT22;16814;52.118;11.436;2022-07-29T13:03:56;28.70;52.10
29571;DHT22;16814;52.118;11.436;2022-07-29T13:06:43;28.60;52.10
29571;DHT22;16814;52.118;11.436;2022-07-29T13:11:44;28.50;52.20
29571;DHT22;16814;52.118;11.436;2022-07-29T13:14:38;28.30;52.70
29571;DHT22;16814;52.118;11.436;2022-07-29T13:20:07;28.40;52.30
29571;DHT22;16814;52.118;11.436;2022-07-29T13:22:34;28.20;52.60
29571;DHT22;16814;52.118;11.436;2022-07-29T13:25:10;28.30;52.30
29571;DHT22;16814;52.118;11.436;2022-07-29T13:27:39;28.20;51.70
29571;DHT22;16814;52.118;11.436;2022-07-29T13:30:08;28.20;51.70
29571;DHT22;16814;52.118;11.436;2022-07-29T13:32:35;27.90;51.90
29571;DHT22;16814;52.118;11.436;2022-07-29T13:35:05;27.70;52.90
29571;DHT22;16814;52.118;11.436;2022-07-29T13:37:34;27.80;52.60
29571;DHT22;16814;52.118;11.436;2022-07-29T13:40:02;27.80;52.70
29571;DHT22;16814;52.118;11.436;2022-07-29T13:42:30;27.80;52.50
29571;DHT22;16814;52.118;11.436;2022-07-29T13:44:57;27.70;52.60
29571;DHT22;16814;52.118;11.436;2022-07-29T13:47:25;27.80;53.10
29571;DHT22;16814;52.118;11.436;2022-07-29T13:49:52;27.70;52.50
29571;DHT22;16814;52.118;11.436;2022-07-29T13:52:19;27.70;52.30
29571;DHT22;16814;52.118;11.436;2022-07-29T13:54:46;27.70;52.60
29571;DHT22;16814;52.118;11.436;2022-07-29T13:57:13;27.60;53.20
29571;DHT22;16814;52.118;11.436;2022-07-29T13:59:40;27.60;53.70
29571;DHT22;16814;52.118;11.436;2022-07-29T14:02:09;27.60;53.90
29571;DHT22;16814;52.118;11.436;2022-07-29T14:04:35;27.80;54.50
29571;DHT22;16814;52.118;11.436;2022-07-29T14:07:05;28.20;53.60
29571;DHT22;16814;52.118;11.436;2022-07-29T14:09:30;28.10;52.30
29571;DHT22;16814;52.118;11.436;2022-07-29T14:12:00;28.00;52.20
29571;DHT22;16814;52.118;11.436;2022-07-29T14:14:29;28.00;53.10
29571;DHT22;16814;52.118;11.436;2022-07-29T14:16:58;28.00;52.50
29571;DHT22;16814;52.118;11.436;2022-07-29T14:19:24;27.90;53.50
29571;DHT22;16814;52.118;11.436;2022-07-29T14:21:49;27.80;52.80
29571;DHT22;16814;52.118;11.436;2022-07-29T14:24:16;27.90;52.80
29571;DHT22;16814;52.118;11.436;2022-07-29T14:26:43;27.80;52.70
29571;DHT22;16814;52.118;11.436;2022-07-29T14:29:09;27.70;53.20
29571;DHT22;16814;52.118;11.436;2022-07-29T14:31:36;27.70;53.80
29571;DHT22;16814;52.118;11.436;2022-07-29T14:34:01;27.60;53.20
29571;DHT22;16814;52.118;11.436;2022-07-29T14:36:28;27.70;52.80
29571;DHT22;16814;52.118;11.436;2022-07-29T14:38:55;27.70;52.90
29571;DHT22;16814;52.118;11.436;2022-07-29T14:41:22;27.60;53.80
29571;DHT22;16814;52.118;11.436;2022-07-29T14:43:48;27.60;53.40
29571;DHT22;16814;52.118;11.436;2022-07-29T14:46:15;27.60;53.80
29571;DHT22;16814;52.118;11.436;2022-07-29T14:48:40;27.60;53.70
29571;DHT22;16814;52.118;11.436;2022-07-29T14:51:07;27.60;53.40
29571;DHT22;16814;52.118;11.436;2022-07-29T14:53:43;27.70;53.90
29571;DHT22;16814;52.118;11.436;2022-07-29T14:56:10;27.70;53.40
29571;DHT22;16814;52.118;11.436;2022-07-29T14:58:38;27.60;53.40
29571;DHT22;16814;52.118;11.436;2022-07-29T15:01:05;27.60;54.30
29571;DHT22;16814;52.118;11.436;2022-07-29T15:03:33;27.70;52.50
29571;DHT22;16814;52.118;11.436;2022-07-29T15:05:59;27.70;52.20
29571;DHT22;16814;52.118;11.436;2022-07-29T15:08:26;27.80;51.60
29571;DHT22;16814;52.118;11.436;2022-07-29T15:10:54;27.60;52.00
29571;DHT22;16814;52.118;11.436;2022-07-29T15:13:22;27.70;52.40
29571;DHT22;16814;52.118;11.436;2022-07-29T15:15:48;27.70;51.80
29571;DHT22;16814;52.118;11.436;2022-07-29T15:18:18;27.70;53.00
29571;DHT22;16814;52.118;11.436;2022-07-29T15:20:45;27.70;52.80
29571;DHT22;16814;52.118;11.436;2022-07-29T15:23:12;27.90;52.70
29571;DHT22;16814;52.118;11.436;2022-07-29T15:25:39;27.90;52.00
29571;DHT22;16814;52.118;11.436;2022-07-29T15:28:06;27.90;52.30
29571;DHT22;16814;52.118;11.436;2022-07-29T15:30:38;27.80;52.10
29571;DHT22;16814;52.118;11.436;2022-07-29T15:33:09;27.70;52.30
29571;DHT22;16814;52.118;11.436;2022-07-29T15:35:38;27.70;52.60
29571;DHT22;16814;52.118;11.436;2022-07-29T15:38:06;27.80;53.00
29571;DHT22;16814;52.118;11.436;2022-07-29T15:40:33;27.80;53.20
29571;DHT22;16814;52.118;11.436;2022-07-29T15:43:03;27.90;53.40
29571;DHT22;16814;52.118;11.436;2022-07-29T15:45:41;27.80;53.20
29571;DHT22;16814;52.118;11.436;2022-07-29T15:48:28;27.70;52.70
29571;DHT22;16814;52.118;11.436;2022-07-29T15:51:00;27.10;54.00
29571;DHT22;16814;52.118;11.436;2022-07-29T15:53:25;27.10;54.90
29571;DHT22;16814;52.118;11.436;2022-07-29T15:55:52;27.10;55.20
29571;DHT22;16814;52.118;11.436;2022-07-29T15:58:19;27.00;55.60
29571;DHT22;16814;52.118;11.436;2022-07-29T16:00:47;27.00;55.20